createdAt,value
2019-04-23T00:03:57.698Z,0
2019-04-23T00:12:47.687Z,0
2019-04-23T00:20:40.572Z,0
2019-04-23T00:28:58.674Z,0
2019-04-23T00:37:35.142Z,0
2019-04-23T00:45:43.828Z,0
2019-04-23T00:53:32.302Z,0
2019-04-23T01:01:49.227Z,0
2019-04-23T01:09:38.488Z,0
2019-04-23T01:17:16.408Z,0
2019-04-23T01:23:01.109Z,0
2019-04-23T01:29:12.435Z,0
2019-04-23T01:45:48.990Z,0
2019-04-23T01:54:25.424Z,0
2019-04-23T02:03:07.214Z,0
2019-04-23T02:11:50.452Z,0
2019-04-23T02:20:35.828Z,0
2019-04-23T02:30:05.168Z,0
2019-04-23T02:40:13.414Z,0
2019-04-23T03:00:05.278Z,0
2019-04-23T03:10:15.199Z,229
2019-04-23T03:20:14.150Z,241.9
2019-04-23T03:39:01.390Z,241.9
2019-04-23T03:49:45.994Z,241.9
2019-04-23T04:08:24.203Z,240.5
2019-04-23T04:27:53.599Z,241.9
2019-04-23T04:59:03.456Z,239
2019-04-23T05:20:36.445Z,246.2
2019-04-23T05:30:21.139Z,241.9
2019-04-23T05:41:09.787Z,240.5
2019-04-23T05:49:58.784Z,247.7
2019-04-23T05:58:43.486Z,240.5
2019-04-23T06:08:17.503Z,243.4
2019-04-23T06:17:14.177Z,244.8
2019-04-23T06:26:39.189Z,240.5
2019-04-23T06:35:13.449Z,244.8
2019-04-23T06:44:05.634Z,244.8
2019-04-23T07:00:06.110Z,243.4
2019-04-23T07:17:34.143Z,244.8
2019-04-23T07:26:05.901Z,244.8
2019-04-23T07:35:30.029Z,195.8
2019-04-23T07:44:28.009Z,243.4
2019-04-23T07:54:00.011Z,246.2
2019-04-23T08:02:33.346Z,257.8
2019-04-23T08:12:30.738Z,253.4
2019-04-23T08:21:09.668Z,256.3
2019-04-23T08:30:09.035Z,265
2019-04-23T08:39:42.816Z,260.6
2019-04-23T08:49:35.601Z,252
2019-04-23T08:58:18.704Z,257.8
2019-04-23T09:07:20.377Z,256.3
2019-04-23T09:15:49.617Z,260.6
2019-04-23T09:24:09.016Z,265
2019-04-23T09:32:58.649Z,263.5
2019-04-23T09:42:08.221Z,265
2019-04-23T09:51:22.135Z,253.4
2019-04-23T10:00:24.837Z,247.7
2019-04-23T10:06:28.801Z,252
2019-04-23T10:10:36.339Z,250.6
2019-04-23T10:13:52.591Z,252
2019-04-23T10:17:11.036Z,254.9
2019-04-23T10:20:28.563Z,259.2
2019-04-23T10:23:47.438Z,263.5
2019-04-23T10:27:04.025Z,270.7
2019-04-23T10:30:21.708Z,272.2
2019-04-23T10:33:35.017Z,272.2
2019-04-23T10:36:53.591Z,270.7
2019-04-23T10:40:46.633Z,265
2019-04-23T10:44:09.026Z,266.4
2019-04-23T10:50:54.288Z,265
2019-04-23T10:59:51.612Z,262.1
2019-04-23T11:08:34.674Z,266.4
2019-04-23T11:18:44.862Z,267.8
2019-04-23T11:27:48.740Z,265
2019-04-23T11:39:30.762Z,265
2019-04-23T12:00:40.134Z,259.2
2019-04-23T12:20:26.575Z,257.8
2019-04-23T12:29:46.001Z,260.6
2019-04-23T12:39:02.407Z,262.1
2019-04-23T12:58:30.539Z,259.2
2019-04-23T13:06:57.299Z,257.8
2019-04-23T13:16:15.938Z,257.8
2019-04-23T13:25:17.223Z,253.4
2019-04-23T13:42:52.170Z,252
2019-04-23T13:52:56.595Z,253.4
2019-04-23T14:02:30.910Z,240.5
2019-04-23T14:12:17.278Z,249.1
2019-04-23T14:21:44.251Z,247.7
2019-04-23T14:32:08.353Z,246.2
2019-04-23T14:41:16.117Z,243.4
2019-04-23T14:50:48.632Z,252
2019-04-23T15:00:17.273Z,256.3
2019-04-23T15:09:27.184Z,204.5
2019-04-23T15:19:35.692Z,257.8
2019-04-23T15:28:32.453Z,250.6
2019-04-23T15:46:11.060Z,315.4
2019-04-23T15:55:26.942Z,190.1
2019-04-23T16:01:46.714Z,246.2
2019-04-23T16:04:59.974Z,246.2
2019-04-23T16:11:51.312Z,244.8
2019-04-23T16:21:53.305Z,246.2
2019-04-23T16:31:26.175Z,247.7
2019-04-23T16:51:00.356Z,246.2
2019-04-23T17:00:37.388Z,244.8
2019-04-23T17:18:45.577Z,246.2
2019-04-23T17:28:03.178Z,244.8
2019-04-23T17:37:26.548Z,246.2
2019-04-23T17:46:48.979Z,246.2
2019-04-23T17:56:44.490Z,244.8
2019-04-23T18:15:33.921Z,240.5
2019-04-23T18:24:49.987Z,0
2019-04-23T18:51:18.650Z,0
2019-04-23T19:10:55.412Z,0
2019-04-23T19:20:11.492Z,0
2019-04-23T19:39:10.909Z,0
2019-04-23T19:48:06.864Z,0
2019-04-23T19:57:49.023Z,0
2019-04-23T20:36:04.836Z,0
2019-04-23T20:45:54.443Z,0
2019-04-23T21:05:02.826Z,0
2019-04-23T21:14:26.068Z,0
2019-04-23T21:23:59.880Z,0
2019-04-23T21:32:55.527Z,0
2019-04-23T21:43:15.320Z,0
2019-04-23T21:53:05.744Z,0
2019-04-23T22:01:52.831Z,0
2019-04-23T22:11:56.338Z,0
2019-04-23T22:21:12.500Z,0
2019-04-23T22:31:03.522Z,0
2019-04-23T22:40:09.967Z,0
2019-04-23T23:08:59.468Z,0
2019-04-23T23:27:22.723Z,0
2019-04-23T23:36:46.676Z,0
2019-04-23T23:55:18.263Z,0
